sensor_id;sensor_type;location;lat;lon;timestamp;P1;durP1;ratioP1;P2;durP2;ratioP2
4106;SDS011;21906;50.812;7.132;2023-07-31T00:01:42;4.53;;;3.07;;
4106;SDS011;21906;50.812;7.132;2023-07-31T00:04:08;3.23;;;2.83;;
4106;SDS011;21906;50.812;7.132;2023-07-31T00:06:33;5.43;;;3.60;;
4106;SDS011;21906;50.812;7.132;2023-07-31T00:08:59;4.07;;;3.50;;
4106;SDS011;21906;50.812;7.132;2023-07-31T00:11:25;3.50;;;3.10;;
4106;SDS011;21906;50.812;7.132;2023-07-31T00:13:52;3.37;;;3.07;;
4106;SDS011;21906;50.812;7.132;2023-07-31T00:16:18;3.83;;;3.50;;
4106;SDS011;21906;50.812;7.132;2023-07-31T00:18:44;3.40;;;3.10;;
4106;SDS011;21906;50.812;7.132;2023-07-31T00:21:10;3.77;;;3.33;;
4106;SDS011;21906;50.812;7.132;2023-07-31T00:23:35;5.73;;;3.10;;
4106;SDS011;21906;50.812;7.132;2023-07-31T00:26:01;3.60;;;3.30;;
4106;SDS011;21906;50.812;7.132;2023-07-31T00:28:27;3.73;;;3.40;;
4106;SDS011;21906;50.812;7.132;2023-07-31T00:30:53;4.00;;;3.00;;
4106;SDS011;21906;50.812;7.132;2023-07-31T00:33:19;3.53;;;3.10;;
4106;SDS011;21906;50.812;7.132;2023-07-31T00:35:45;3.33;;;2.97;;
4106;SDS011;21906;50.812;7.132;2023-07-31T00:38:10;5.53;;;3.30;;
4106;SDS011;21906;50.812;7.132;2023-07-31T00:40:36;4.30;;;3.60;;
4106;SDS011;21906;50.812;7.132;2023-07-31T00:43:02;3.20;;;2.90;;
4106;SDS011;21906;50.812;7.132;2023-07-31T00:45:28;3.03;;;2.73;;
4106;SDS011;21906;50.812;7.132;2023-07-31T00:47:54;3.10;;;2.80;;
4106;SDS011;21906;50.812;7.132;2023-07-31T00:50:20;3.43;;;3.13;;
4106;SDS011;21906;50.812;7.132;2023-07-31T00:52:49;4.73;;;2.90;;
4106;SDS011;21906;50.812;7.132;2023-07-31T00:55:14;3.50;;;2.63;;
4106;SDS011;21906;50.812;7.132;2023-07-31T00:57:41;3.20;;;2.60;;
4106;SDS011;21906;50.812;7.132;2023-07-31T01:00:07;2.90;;;2.60;;
4106;SDS011;21906;50.812;7.132;2023-07-31T01:02:33;2.73;;;2.53;;
4106;SDS011;21906;50.812;7.132;2023-07-31T01:04:59;2.97;;;2.77;;
4106;SDS011;21906;50.812;7.132;2023-07-31T01:07:27;3.63;;;2.60;;
4106;SDS011;21906;50.812;7.132;2023-07-31T01:10:08;3.33;;;2.60;;
4106;SDS011;21906;50.812;7.132;2023-07-31T01:12:40;3.43;;;3.13;;
4106;SDS011;21906;50.812;7.132;2023-07-31T01:15:08;2.80;;;2.40;;
4106;SDS011;21906;50.812;7.132;2023-07-31T01:17:39;2.83;;;2.53;;
4106;SDS011;21906;50.812;7.132;2023-07-31T01:20:27;3.00;;;2.70;;
4106;SDS011;21906;50.812;7.132;2023-07-31T01:31:55;2.50;;;2.30;;
4106;SDS011;21906;50.812;7.132;2023-07-31T01:34:23;2.50;;;2.10;;
4106;SDS011;21906;50.812;7.132;2023-07-31T01:36:49;2.87;;;2.67;;
4106;SDS011;21906;50.812;7.132;2023-07-31T01:39:15;4.07;;;2.50;;
4106;SDS011;21906;50.812;7.132;2023-07-31T01:41:41;4.97;;;2.80;;
4106;SDS011;21906;50.812;7.132;2023-07-31T01:44:06;3.37;;;3.00;;
4106;SDS011;21906;50.812;7.132;2023-07-31T01:46:32;2.57;;;2.37;;
4106;SDS011;21906;50.812;7.132;2023-07-31T01:48:58;3.10;;;2.43;;
4106;SDS011;21906;50.812;7.132;2023-07-31T01:51:23;2.77;;;2.57;;
4106;SDS011;21906;50.812;7.132;2023-07-31T01:53:49;2.60;;;2.40;;
4106;SDS011;21906;50.812;7.132;2023-07-31T01:56:14;2.30;;;2.10;;
4106;SDS011;21906;50.812;7.132;2023-07-31T01:58:40;3.33;;;2.60;;
4106;SDS011;21906;50.812;7.132;2023-07-31T02:01:06;2.40;;;2.20;;
4106;SDS011;21906;50.812;7.132;2023-07-31T02:03:31;4.53;;;2.43;;
4106;SDS011;21906;50.812;7.132;2023-07-31T02:05:57;2.40;;;2.20;;
4106;SDS011;21906;50.812;7.132;2023-07-31T02:08:22;5.30;;;2.53;;
4106;SDS011;21906;50.812;7.132;2023-07-31T02:10:48;2.93;;;2.43;;
4106;SDS011;21906;50.812;7.132;2023-07-31T02:13:14;3.13;;;2.60;;
4106;SDS011;21906;50.812;7.132;2023-07-31T02:15:39;4.67;;;2.60;;
4106;SDS011;21906;50.812;7.132;2023-07-31T02:18:05;3.00;;;2.47;;
4106;SDS011;21906;50.812;7.132;2023-07-31T02:20:33;2.60;;;2.40;;
4106;SDS011;21906;50.812;7.132;2023-07-31T02:23:00;2.90;;;2.70;;
4106;SDS011;21906;50.812;7.132;2023-07-31T02:25:25;3.53;;;2.97;;
4106;SDS011;21906;50.812;7.132;2023-07-31T02:27:51;3.03;;;2.50;;
4106;SDS011;21906;50.812;7.132;2023-07-31T02:30:17;2.90;;;2.70;;
4106;SDS011;21906;50.812;7.132;2023-07-31T02:32:42;2.43;;;2.23;;
4106;SDS011;21906;50.812;7.132;2023-07-31T02:35:08;3.60;;;3.20;;
4106;SDS011;21906;50.812;7.132;2023-07-31T02:37:34;3.43;;;2.80;;
4106;SDS011;21906;50.812;7.132;2023-07-31T02:39:59;3.73;;;2.33;;
4106;SDS011;21906;50.812;7.132;2023-07-31T02:42:25;3.57;;;3.27;;
4106;SDS011;21906;50.812;7.132;2023-07-31T02:44:51;2.80;;;2.60;;
4106;SDS011;21906;50.812;7.132;2023-07-31T02:47:20;4.53;;;2.50;;
4106;SDS011;21906;50.812;7.132;2023-07-31T02:49:46;5.53;;;2.90;;
4106;SDS011;21906;50.812;7.132;2023-07-31T02:52:12;2.93;;;2.60;;
4106;SDS011;21906;50.812;7.132;2023-07-31T02:54:38;2.80;;;2.60;;
4106;SDS011;21906;50.812;7.132;2023-07-31T02:57:03;4.37;;;2.60;;
4106;SDS011;21906;50.812;7.132;2023-07-31T02:59:30;3.83;;;3.00;;
4106;SDS011;21906;50.812;7.132;2023-07-31T03:01:55;3.00;;;2.80;;
4106;SDS011;21906;50.812;7.132;2023-07-31T03:04:21;3.33;;;3.13;;
4106;SDS011;21906;50.812;7.132;2023-07-31T03:06:47;3.00;;;2.70;;
4106;SDS011;21906;50.812;7.132;2023-07-31T03:09:12;3.87;;;3.57;;
4106;SDS011;21906;50.812;7.132;2023-07-31T03:11:38;3.53;;;2.70;;
4106;SDS011;21906;50.812;7.132;2023-07-31T03:14:03;2.80;;;2.60;;
4106;SDS011;21906;50.812;7.132;2023-07-31T03:16:29;3.50;;;2.83;;
4106;SDS011;21906;50.812;7.132;2023-07-31T03:18:55;4.10;;;2.87;;
4106;SDS011;21906;50.812;7.132;2023-07-31T03:21:20;3.43;;;2.90;;
4106;SDS011;21906;50.812;7.132;2023-07-31T03:23:46;5.97;;;3.60;;
4106;SDS011;21906;50.812;7.132;2023-07-31T03:26:11;4.30;;;3.10;;
4106;SDS011;21906;50.812;7.132;2023-07-31T03:28:37;4.97;;;2.90;;
4106;SDS011;21906;50.812;7.132;2023-07-31T03:31:03;3.80;;;2.70;;
4106;SDS011;21906;50.812;7.132;2023-07-31T03:33:29;5.57;;;3.50;;
4106;SDS011;21906;50.812;7.132;2023-07-31T03:35:55;3.93;;;3.40;;
4106;SDS011;21906;50.812;7.132;2023-07-31T03:38:21;3.37;;;2.53;;
4106;SDS011;21906;50.812;7.132;2023-07-31T03:40:46;3.73;;;2.93;;
4106;SDS011;21906;50.812;7.132;2023-07-31T03:43:12;3.33;;;2.70;;
4106;SDS011;21906;50.812;7.132;2023-07-31T03:45:38;4.47;;;2.70;;
4106;SDS011;21906;50.812;7.132;2023-07-31T03:48:03;3.50;;;3.07;;
4106;SDS011;21906;50.812;7.132;2023-07-31T03:50:29;3.40;;;3.10;;
4106;SDS011;21906;50.812;7.132;2023-07-31T03:52:55;4.07;;;3.17;;
4106;SDS011;21906;50.812;7.132;2023-07-31T03:55:21;3.40;;;3.10;;
4106;SDS011;21906;50.812;7.132;2023-07-31T03:57:49;6.13;;;3.70;;
4106;SDS011;21906;50.812;7.132;2023-07-31T04:00:15;3.30;;;3.03;;
4106;SDS011;21906;50.812;7.132;2023-07-31T04:02:41;3.30;;;3.00;;
4106;SDS011;21906;50.812;7.132;2023-07-31T04:05:07;4.80;;;2.87;;
4106;SDS011;21906;50.812;7.132;2023-07-31T04:07:32;3.30;;;3.10;;
4106;SDS011;21906;50.812;7.132;2023-07-31T04:09:59;4.73;;;3.70;;
4106;SDS011;21906;50.812;7.132;2023-07-31T04:12:25;3.17;;;2.97;;
4106;SDS011;21906;50.812;7.132;2023-07-31T04:14:51;4.80;;;3.00;;
4106;SDS011;21906;50.812;7.132;2023-07-31T04:17:19;3.53;;;2.90;;
4106;SDS011;21906;50.812;7.132;2023-07-31T04:19:45;5.57;;;3.10;;
4106;SDS011;21906;50.812;7.132;2023-07-31T04:22:11;3.83;;;3.00;;
4106;SDS011;21906;50.812;7.132;2023-07-31T04:24:36;5.13;;;3.27;;
4106;SDS011;21906;50.812;7.132;2023-07-31T04:27:02;3.20;;;2.90;;
4106;SDS011;21906;50.812;7.132;2023-07-31T04:29:28;3.73;;;3.07;;
4106;SDS011;21906;50.812;7.132;2023-07-31T04:31:53;3.47;;;3.17;;
4106;SDS011;21906;50.812;7.132;2023-07-31T04:34:19;3.27;;;3.07;;
4106;SDS011;21906;50.812;7.132;2023-07-31T04:36:45;3.97;;;3.20;;
4106;SDS011;21906;50.812;7.132;2023-07-31T04:39:10;3.63;;;3.23;;
4106;SDS011;21906;50.812;7.132;2023-07-31T04:41:36;3.10;;;2.90;;
4106;SDS011;21906;50.812;7.132;2023-07-31T04:44:01;3.63;;;3.30;;
4106;SDS011;21906;50.812;7.132;2023-07-31T04:46:28;5.20;;;3.70;;
4106;SDS011;21906;50.812;7.132;2023-07-31T04:48:54;4.87;;;3.50;;
4106;SDS011;21906;50.812;7.132;2023-07-31T04:51:20;5.30;;;3.47;;
4106;SDS011;21906;50.812;7.132;2023-07-31T04:53:46;4.43;;;3.77;;
4106;SDS011;21906;50.812;7.132;2023-07-31T04:56:11;4.07;;;3.47;;
4106;SDS011;21906;50.812;7.132;2023-07-31T04:58:37;5.63;;;3.27;;
4106;SDS011;21906;50.812;7.132;2023-07-31T05:01:03;2.80;;;2.60;;
4106;SDS011;21906;50.812;7.132;2023-07-31T05:03:29;3.93;;;3.50;;
4106;SDS011;21906;50.812;7.132;2023-07-31T05:05:54;3.50;;;3.20;;
4106;SDS011;21906;50.812;7.132;2023-07-31T05:08:20;3.50;;;3.20;;
4106;SDS011;21906;50.812;7.132;2023-07-31T05:10:46;3.40;;;3.10;;
4106;SDS011;21906;50.812;7.132;2023-07-31T05:13:11;3.73;;;3.43;;
4106;SDS011;21906;50.812;7.132;2023-07-31T05:15:37;3.80;;;3.50;;
4106;SDS011;21906;50.812;7.132;2023-07-31T05:18:03;4.10;;;3.70;;
4106;SDS011;21906;50.812;7.132;2023-07-31T05:20:29;5.17;;;3.63;;
4106;SDS011;21906;50.812;7.132;2023-07-31T05:22:54;5.17;;;4.07;;
4106;SDS011;21906;50.812;7.132;2023-07-31T05:25:20;4.03;;;3.53;;
4106;SDS011;21906;50.812;7.132;2023-07-31T05:27:45;4.17;;;3.77;;
4106;SDS011;21906;50.812;7.132;2023-07-31T05:30:11;9.30;;;3.50;;
4106;SDS011;21906;50.812;7.132;2023-07-31T05:32:37;5.90;;;3.80;;
4106;SDS011;21906;50.812;7.132;2023-07-31T05:35:02;4.37;;;3.73;;
4106;SDS011;21906;50.812;7.132;2023-07-31T05:37:28;3.57;;;3.20;;
4106;SDS011;21906;50.812;7.132;2023-07-31T05:39:54;4.37;;;3.77;;
4106;SDS011;21906;50.812;7.132;2023-07-31T05:42:20;4.10;;;3.70;;
4106;SDS011;21906;50.812;7.132;2023-07-31T05:44:45;4.20;;;3.77;;
4106;SDS011;21906;50.812;7.132;2023-07-31T05:47:12;3.80;;;3.50;;
4106;SDS011;21906;50.812;7.132;2023-07-31T05:49:37;4.53;;;3.30;;
4106;SDS011;21906;50.812;7.132;2023-07-31T05:52:03;4.10;;;3.73;;
4106;SDS011;21906;50.812;7.132;2023-07-31T05:54:29;3.90;;;3.60;;
4106;SDS011;21906;50.812;7.132;2023-07-31T05:56:55;3.57;;;3.27;;
4106;SDS011;21906;50.812;7.132;2023-07-31T05:59:20;6.00;;;3.60;;
4106;SDS011;21906;50.812;7.132;2023-07-31T06:01:46;3.40;;;3.10;;
4106;SDS011;21906;50.812;7.132;2023-07-31T06:04:12;3.30;;;3.10;;
4106;SDS011;21906;50.812;7.132;2023-07-31T06:06:37;4.67;;;3.63;;
4106;SDS011;21906;50.812;7.132;2023-07-31T06:09:03;3.60;;;3.30;;
4106;SDS011;21906;50.812;7.132;2023-07-31T06:11:29;3.40;;;3.10;;
4106;SDS011;21906;50.812;7.132;2023-07-31T06:13:54;3.70;;;3.40;;
4106;SDS011;21906;50.812;7.132;2023-07-31T06:16:20;6.57;;;3.40;;
4106;SDS011;21906;50.812;7.132;2023-07-31T06:18:46;3.57;;;3.27;;
4106;SDS011;21906;50.812;7.132;2023-07-31T06:21:12;4.63;;;3.27;;
4106;SDS011;21906;50.812;7.132;2023-07-31T06:23:38;3.30;;;3.10;;
4106;SDS011;21906;50.812;7.132;2023-07-31T06:26:03;3.50;;;3.20;;
4106;SDS011;21906;50.812;7.132;2023-07-31T06:28:30;3.53;;;3.23;;
4106;SDS011;21906;50.812;7.132;2023-07-31T06:30:57;3.90;;;3.03;;
4106;SDS011;21906;50.812;7.132;2023-07-31T06:33:23;4.13;;;3.83;;
4106;SDS011;21906;50.812;7.132;2023-07-31T06:35:49;3.60;;;3.30;;
4106;SDS011;21906;50.812;7.132;2023-07-31T06:38:15;3.67;;;3.03;;
4106;SDS011;21906;50.812;7.132;2023-07-31T06:40:44;3.70;;;3.40;;
4106;SDS011;21906;50.812;7.132;2023-07-31T06:43:09;4.50;;;3.23;;
4106;SDS011;21906;50.812;7.132;2023-07-31T06:45:36;6.20;;;3.70;;
4106;SDS011;21906;50.812;7.132;2023-07-31T06:48:03;3.40;;;3.10;;
4106;SDS011;21906;50.812;7.132;2023-07-31T06:50:32;5.80;;;3.60;;
4106;SDS011;21906;50.812;7.132;2023-07-31T06:52:58;3.90;;;3.30;;
4106;SDS011;21906;50.812;7.132;2023-07-31T06:55:24;3.87;;;3.57;;
4106;SDS011;21906;50.812;7.132;2023-07-31T06:57:51;3.70;;;3.40;;
4106;SDS011;21906;50.812;7.132;2023-07-31T07:00:19;4.03;;;3.73;;
4106;SDS011;21906;50.812;7.132;2023-07-31T07:02:45;3.30;;;3.00;;
4106;SDS011;21906;50.812;7.132;2023-07-31T07:05:12;5.00;;;4.03;;
4106;SDS011;21906;50.812;7.132;2023-07-31T07:07:39;4.03;;;3.70;;
4106;SDS011;21906;50.812;7.132;2023-07-31T07:10:05;6.63;;;3.97;;
4106;SDS011;21906;50.812;7.132;2023-07-31T07:12:32;5.53;;;3.63;;
4106;SDS011;21906;50.812;7.132;2023-07-31T07:14:58;4.70;;;3.67;;
4106;SDS011;21906;50.812;7.132;2023-07-31T07:17:25;4.13;;;3.53;;
4106;SDS011;21906;50.812;7.132;2023-07-31T07:19:51;4.00;;;3.63;;
4106;SDS011;21906;50.812;7.132;2023-07-31T07:22:17;3.70;;;3.37;;
4106;SDS011;21906;50.812;7.132;2023-07-31T07:24:43;4.30;;;3.90;;
4106;SDS011;21906;50.812;7.132;2023-07-31T07:27:09;6.23;;;4.43;;
4106;SDS011;21906;50.812;7.132;2023-07-31T07:29:34;4.93;;;3.73;;
4106;SDS011;21906;50.812;7.132;2023-07-31T07:32:00;4.57;;;3.63;;
4106;SDS011;21906;50.812;7.132;2023-07-31T07:34:26;3.50;;;3.20;;
4106;SDS011;21906;50.812;7.132;2023-07-31T07:36:53;4.83;;;3.60;;
4106;SDS011;21906;50.812;7.132;2023-07-31T07:39:19;4.10;;;3.50;;
4106;SDS011;21906;50.812;7.132;2023-07-31T07:41:45;4.40;;;3.83;;
4106;SDS011;21906;50.812;7.132;2023-07-31T07:44:11;4.37;;;3.93;;
4106;SDS011;21906;50.812;7.132;2023-07-31T07:46:38;5.47;;;4.10;;
4106;SDS011;21906;50.812;7.132;2023-07-31T07:49:04;7.90;;;4.00;;
4106;SDS011;21906;50.812;7.132;2023-07-31T07:51:30;4.80;;;3.90;;
4106;SDS011;21906;50.812;7.132;2023-07-31T07:53:56;5.13;;;4.00;;
4106;SDS011;21906;50.812;7.132;2023-07-31T07:56:23;4.73;;;4.20;;
4106;SDS011;21906;50.812;7.132;2023-07-31T07:58:52;4.67;;;4.27;;
4106;SDS011;21906;50.812;7.132;2023-07-31T08:01:18;6.30;;;4.20;;
4106;SDS011;21906;50.812;7.132;2023-07-31T08:03:44;5.30;;;3.67;;
4106;SDS011;21906;50.812;7.132;2023-07-31T08:06:10;7.80;;;4.00;;
4106;SDS011;21906;50.812;7.132;2023-07-31T08:08:36;4.43;;;3.93;;
4106;SDS011;21906;50.812;7.132;2023-07-31T08:11:03;5.50;;;4.33;;
4106;SDS011;21906;50.812;7.132;2023-07-31T08:13:29;4.70;;;3.73;;
4106;SDS011;21906;50.812;7.132;2023-07-31T08:15:54;5.83;;;4.27;;
4106;SDS011;21906;50.812;7.132;2023-07-31T08:18:20;6.40;;;3.90;;
4106;SDS011;21906;50.812;7.132;2023-07-31T08:20:46;4.40;;;4.00;;
4106;SDS011;21906;50.812;7.132;2023-07-31T08:23:12;4.00;;;3.70;;
4106;SDS011;21906;50.812;7.132;2023-07-31T08:25:38;5.00;;;3.70;;
4106;SDS011;21906;50.812;7.132;2023-07-31T08:28:05;5.50;;;4.00;;
4106;SDS011;21906;50.812;7.132;2023-07-31T08:30:31;7.90;;;4.13;;
4106;SDS011;21906;50.812;7.132;2023-07-31T08:32:58;5.53;;;3.70;;
4106;SDS011;21906;50.812;7.132;2023-07-31T08:35:24;7.23;;;4.20;;
4106;SDS011;21906;50.812;7.132;2023-07-31T08:37:51;6.40;;;3.77;;
4106;SDS011;21906;50.812;7.132;2023-07-31T08:40:17;6.03;;;4.50;;
4106;SDS011;21906;50.812;7.132;2023-07-31T08:42:43;4.60;;;3.83;;
4106;SDS011;21906;50.812;7.132;2023-07-31T08:45:13;4.07;;;3.77;;
4106;SDS011;21906;50.812;7.132;2023-07-31T08:47:44;5.10;;;3.87;;
4106;SDS011;21906;50.812;7.132;2023-07-31T08:50:15;5.30;;;4.10;;
4106;SDS011;21906;50.812;7.132;2023-07-31T08:52:42;4.57;;;3.80;;
4106;SDS011;21906;50.812;7.132;2023-07-31T08:55:09;4.13;;;3.80;;
4106;SDS011;21906;50.812;7.132;2023-07-31T08:57:35;4.97;;;4.37;;
4106;SDS011;21906;50.812;7.132;2023-07-31T09:00:06;5.30;;;4.40;;
4106;SDS011;21906;50.812;7.132;2023-07-31T09:02:46;3.97;;;3.60;;
4106;SDS011;21906;50.812;7.132;2023-07-31T09:05:21;5.03;;;4.50;;
4106;SDS011;21906;50.812;7.132;2023-07-31T09:07:48;4.10;;;3.70;;
4106;SDS011;21906;50.812;7.132;2023-07-31T09:10:15;4.10;;;3.80;;
4106;SDS011;21906;50.812;7.132;2023-07-31T09:12:41;6.20;;;3.77;;
4106;SDS011;21906;50.812;7.132;2023-07-31T09:15:07;3.77;;;3.47;;
4106;SDS011;21906;50.812;7.132;2023-07-31T09:17:36;4.00;;;3.57;;
4106;SDS011;21906;50.812;7.132;2023-07-31T09:20:18;3.43;;;3.13;;
4106;SDS011;21906;50.812;7.132;2023-07-31T09:22:45;4.77;;;3.60;;
4106;SDS011;21906;50.812;7.132;2023-07-31T09:28:02;4.03;;;3.20;;
4106;SDS011;21906;50.812;7.132;2023-07-31T09:30:29;3.27;;;3.07;;
4106;SDS011;21906;50.812;7.132;2023-07-31T09:33:02;4.00;;;3.50;;
4106;SDS011;21906;50.812;7.132;2023-07-31T09:35:32;4.47;;;3.50;;
4106;SDS011;21906;50.812;7.132;2023-07-31T09:37:59;3.50;;;3.20;;
4106;SDS011;21906;50.812;7.132;2023-07-31T09:40:29;4.20;;;3.63;;
4106;SDS011;21906;50.812;7.132;2023-07-31T09:42:57;4.20;;;3.80;;
4106;SDS011;21906;50.812;7.132;2023-07-31T09:45:25;6.43;;;3.67;;
4106;SDS011;21906;50.812;7.132;2023-07-31T09:47:51;6.47;;;3.60;;
4106;SDS011;21906;50.812;7.132;2023-07-31T09:50:17;3.53;;;3.30;;
4106;SDS011;21906;50.812;7.132;2023-07-31T09:52:43;3.17;;;2.80;;
4106;SDS011;21906;50.812;7.132;2023-07-31T09:55:09;3.30;;;3.00;;
4106;SDS011;21906;50.812;7.132;2023-07-31T09:57:39;5.03;;;3.23;;
4106;SDS011;21906;50.812;7.132;2023-07-31T10:00:08;3.90;;;3.27;;
4106;SDS011;21906;50.812;7.132;2023-07-31T10:02:35;3.30;;;3.00;;
4106;SDS011;21906;50.812;7.132;2023-07-31T10:05:02;4.33;;;3.17;;
4106;SDS011;21906;50.812;7.132;2023-07-31T10:07:29;4.07;;;3.67;;
4106;SDS011;21906;50.812;7.132;2023-07-31T10:09:59;4.27;;;3.90;;
4106;SDS011;21906;50.812;7.132;2023-07-31T10:12:26;4.23;;;3.80;;
4106;SDS011;21906;50.812;7.132;2023-07-31T10:14:55;4.30;;;3.90;;
4106;SDS011;21906;50.812;7.132;2023-07-31T10:17:21;5.73;;;3.90;;
4106;SDS011;21906;50.812;7.132;2023-07-31T10:19:48;3.77;;;3.40;;
4106;SDS011;21906;50.812;7.132;2023-07-31T10:22:15;4.27;;;3.90;;
4106;SDS011;21906;50.812;7.132;2023-07-31T10:24:47;5.43;;;3.80;;
4106;SDS011;21906;50.812;7.132;2023-07-31T10:27:15;3.83;;;3.13;;
4106;SDS011;21906;50.812;7.132;2023-07-31T10:29:41;4.47;;;4.07;;
4106;SDS011;21906;50.812;7.132;2023-07-31T10:32:12;5.20;;;3.57;;
4106;SDS011;21906;50.812;7.132;2023-07-31T10:34:39;4.30;;;3.77;;
4106;SDS011;21906;50.812;7.132;2023-07-31T10:40:02;4.43;;;3.83;;
4106;SDS011;21906;50.812;7.132;2023-07-31T10:42:37;4.13;;;3.83;;
4106;SDS011;21906;50.812;7.132;2023-07-31T10:45:14;4.37;;;3.90;;
4106;SDS011;21906;50.812;7.132;2023-07-31T10:47:49;6.70;;;3.40;;
4106;SDS011;21906;50.812;7.132;2023-07-31T10:50:28;2.70;;;2.50;;
4106;SDS011;21906;50.812;7.132;2023-07-31T10:52:55;2.93;;;2.70;;
4106;SDS011;21906;50.812;7.132;2023-07-31T10:58:08;2.80;;;2.60;;
4106;SDS011;21906;50.812;7.132;2023-07-31T11:00:38;2.40;;;2.20;;
4106;SDS011;21906;50.812;7.132;2023-07-31T11:03:12;2.97;;;2.00;;
4106;SDS011;21906;50.812;7.132;2023-07-31T11:13:30;3.43;;;2.17;;
4106;SDS011;21906;50.812;7.132;2023-07-31T11:15:56;2.20;;;2.00;;
4106;SDS011;21906;50.812;7.132;2023-07-31T11:18:22;3.23;;;1.97;;
4106;SDS011;21906;50.812;7.132;2023-07-31T11:20:48;2.10;;;2.00;;
4106;SDS011;21906;50.812;7.132;2023-07-31T11:23:15;2.13;;;2.03;;
4106;SDS011;21906;50.812;7.132;2023-07-31T11:25:42;2.40;;;2.20;;
4106;SDS011;21906;50.812;7.132;2023-07-31T11:28:09;3.00;;;1.80;;
4106;SDS011;21906;50.812;7.132;2023-07-31T11:30:36;2.10;;;1.80;;
4106;SDS011;21906;50.812;7.132;2023-07-31T11:33:04;3.90;;;1.60;;
4106;SDS011;21906;50.812;7.132;2023-07-31T11:35:31;1.87;;;1.63;;
4106;SDS011;21906;50.812;7.132;2023-07-31T11:38:01;1.90;;;1.70;;
4106;SDS011;21906;50.812;7.132;2023-07-31T11:40:28;1.60;;;1.50;;
4106;SDS011;21906;50.812;7.132;2023-07-31T11:42:58;2.10;;;1.53;;
4106;SDS011;21906;50.812;7.132;2023-07-31T11:45:29;2.17;;;1.57;;
4106;SDS011;21906;50.812;7.132;2023-07-31T11:51:17;2.40;;;1.87;;
4106;SDS011;21906;50.812;7.132;2023-07-31T11:53:50;1.60;;;1.50;;
4106;SDS011;21906;50.812;7.132;2023-07-31T11:56:18;1.50;;;1.40;;
4106;SDS011;21906;50.812;7.132;2023-07-31T11:58:46;1.70;;;1.60;;
4106;SDS011;21906;50.812;7.132;2023-07-31T12:01:14;1.50;;;1.40;;
4106;SDS011;21906;50.812;7.132;2023-07-31T12:03:47;1.43;;;1.33;;
4106;SDS011;21906;50.812;7.132;2023-07-31T12:06:14;1.70;;;1.57;;
4106;SDS011;21906;50.812;7.132;2023-07-31T12:08:39;1.97;;;1.40;;
4106;SDS011;21906;50.812;7.132;2023-07-31T12:11:06;1.70;;;1.60;;
4106;SDS011;21906;50.812;7.132;2023-07-31T12:13:34;2.93;;;1.50;;
4106;SDS011;21906;50.812;7.132;2023-07-31T12:16:01;1.60;;;1.50;;
4106;SDS011;21906;50.812;7.132;2023-07-31T12:18:29;1.73;;;1.60;;
4106;SDS011;21906;50.812;7.132;2023-07-31T12:21:00;1.60;;;1.50;;
4106;SDS011;21906;50.812;7.132;2023-07-31T12:23:27;2.40;;;1.80;;
4106;SDS011;21906;50.812;7.132;2023-07-31T12:28:38;2.90;;;1.40;;
4106;SDS011;21906;50.812;7.132;2023-07-31T12:31:21;2.70;;;1.90;;
4106;SDS011;21906;50.812;7.132;2023-07-31T12:33:48;1.83;;;1.73;;
4106;SDS011;21906;50.812;7.132;2023-07-31T12:36:21;2.13;;;1.60;;
4106;SDS011;21906;50.812;7.132;2023-07-31T12:38:53;2.10;;;1.90;;
4106;SDS011;21906;50.812;7.132;2023-07-31T12:41:21;2.20;;;2.00;;
4106;SDS011;21906;50.812;7.132;2023-07-31T12:43:46;2.57;;;2.20;;
4106;SDS011;21906;50.812;7.132;2023-07-31T12:46:12;2.43;;;2.23;;
4106;SDS011;21906;50.812;7.132;2023-07-31T12:48:38;2.90;;;2.60;;
4106;SDS011;21906;50.812;7.132;2023-07-31T12:51:05;2.60;;;2.40;;
4106;SDS011;21906;50.812;7.132;2023-07-31T12:53:33;3.00;;;2.80;;
4106;SDS011;21906;50.812;7.132;2023-07-31T12:55:59;2.90;;;2.70;;
4106;SDS011;21906;50.812;7.132;2023-07-31T12:58:26;3.53;;;3.20;;
4106;SDS011;21906;50.812;7.132;2023-07-31T13:00:51;3.10;;;2.90;;
4106;SDS011;21906;50.812;7.132;2023-07-31T13:03:17;3.30;;;3.00;;
4106;SDS011;21906;50.812;7.132;2023-07-31T13:05:43;3.83;;;3.53;;
4106;SDS011;21906;50.812;7.132;2023-07-31T13:08:08;3.50;;;3.20;;
4106;SDS011;21906;50.812;7.132;2023-07-31T13:10:34;3.30;;;3.10;;
4106;SDS011;21906;50.812;7.132;2023-07-31T13:13:00;3.07;;;2.87;;
4106;SDS011;21906;50.812;7.132;2023-07-31T13:15:25;5.00;;;3.70;;
4106;SDS011;21906;50.812;7.132;2023-07-31T13:17:51;4.13;;;3.83;;
4106;SDS011;21906;50.812;7.132;2023-07-31T13:20:17;3.50;;;3.30;;
4106;SDS011;21906;50.812;7.132;2023-07-31T13:22:43;3.93;;;3.63;;
4106;SDS011;21906;50.812;7.132;2023-07-31T13:25:08;4.13;;;3.77;;
4106;SDS011;21906;50.812;7.132;2023-07-31T13:27:34;4.23;;;3.93;;
4106;SDS011;21906;50.812;7.132;2023-07-31T13:30:01;4.20;;;3.90;;
4106;SDS011;21906;50.812;7.132;2023-07-31T13:32:27;3.90;;;3.60;;
4106;SDS011;21906;50.812;7.132;2023-07-31T13:34:53;3.80;;;3.60;;
4106;SDS011;21906;50.812;7.132;2023-07-31T13:37:18;3.83;;;3.43;;
4106;SDS011;21906;50.812;7.132;2023-07-31T13:39:44;3.43;;;3.13;;
4106;SDS011;21906;50.812;7.132;2023-07-31T13:42:10;3.27;;;2.97;;
4106;SDS011;21906;50.812;7.132;2023-07-31T13:44:40;3.20;;;3.00;;
4106;SDS011;21906;50.812;7.132;2023-07-31T13:47:07;3.50;;;3.30;;
4106;SDS011;21906;50.812;7.132;2023-07-31T13:49:33;3.57;;;3.27;;
4106;SDS011;21906;50.812;7.132;2023-07-31T13:51:59;3.10;;;2.90;;
4106;SDS011;21906;50.812;7.132;2023-07-31T13:54:27;2.67;;;2.47;;
4106;SDS011;21906;50.812;7.132;2023-07-31T13:56:53;3.50;;;2.90;;
4106;SDS011;21906;50.812;7.132;2023-07-31T13:59:18;3.40;;;2.53;;
4106;SDS011;21906;50.812;7.132;2023-07-31T14:01:45;2.83;;;2.33;;
4106;SDS011;21906;50.812;7.132;2023-07-31T14:04:11;2.70;;;2.50;;
4106;SDS011;21906;50.812;7.132;2023-07-31T14:06:37;2.77;;;2.57;;
4106;SDS011;21906;50.812;7.132;2023-07-31T14:09:03;2.50;;;2.30;;
4106;SDS011;21906;50.812;7.132;2023-07-31T14:11:32;2.70;;;2.50;;
4106;SDS011;21906;50.812;7.132;2023-07-31T14:13:58;2.50;;;2.30;;
4106;SDS011;21906;50.812;7.132;2023-07-31T14:16:26;2.70;;;2.50;;
4106;SDS011;21906;50.812;7.132;2023-07-31T14:18:52;3.10;;;2.60;;
4106;SDS011;21906;50.812;7.132;2023-07-31T14:21:18;4.23;;;2.87;;
4106;SDS011;21906;50.812;7.132;2023-07-31T14:23:45;2.90;;;2.67;;
4106;SDS011;21906;50.812;7.132;2023-07-31T14:26:11;3.20;;;3.00;;
4106;SDS011;21906;50.812;7.132;2023-07-31T14:28:37;3.80;;;2.53;;
4106;SDS011;21906;50.812;7.132;2023-07-31T14:31:03;2.80;;;2.60;;
4106;SDS011;21906;50.812;7.132;2023-07-31T14:33:29;3.10;;;2.90;;
4106;SDS011;21906;50.812;7.132;2023-07-31T14:35:55;3.63;;;3.00;;
4106;SDS011;21906;50.812;7.132;2023-07-31T14:38:21;2.93;;;2.63;;
4106;SDS011;21906;50.812;7.132;2023-07-31T14:40:47;2.70;;;2.50;;
4106;SDS011;21906;50.812;7.132;2023-07-31T14:43:13;2.60;;;2.40;;
4106;SDS011;21906;50.812;7.132;2023-07-31T14:45:42;3.00;;;2.80;;
4106;SDS011;21906;50.812;7.132;2023-07-31T14:48:07;3.07;;;2.87;;
4106;SDS011;21906;50.812;7.132;2023-07-31T14:50:33;3.17;;;2.60;;
4106;SDS011;21906;50.812;7.132;2023-07-31T14:52:59;2.50;;;2.37;;
4106;SDS011;21906;50.812;7.132;2023-07-31T14:55:25;2.97;;;2.77;;
4106;SDS011;21906;50.812;7.132;2023-07-31T14:57:51;2.77;;;2.57;;
4106;SDS011;21906;50.812;7.132;2023-07-31T15:00:17;2.80;;;2.60;;
4106;SDS011;21906;50.812;7.132;2023-07-31T15:02:43;2.90;;;2.70;;
4106;SDS011;21906;50.812;7.132;2023-07-31T15:05:08;2.60;;;2.40;;
4106;SDS011;21906;50.812;7.132;2023-07-31T15:07:34;2.60;;;2.40;;
4106;SDS011;21906;50.812;7.132;2023-07-31T15:10:03;2.50;;;2.30;;
4106;SDS011;21906;50.812;7.132;2023-07-31T15:12:30;2.80;;;2.60;;
4106;SDS011;21906;50.812;7.132;2023-07-31T15:14:57;2.67;;;2.47;;
4106;SDS011;21906;50.812;7.132;2023-07-31T15:17:22;3.00;;;2.80;;
4106;SDS011;21906;50.812;7.132;2023-07-31T15:19:49;2.70;;;2.50;;
4106;SDS011;21906;50.812;7.132;2023-07-31T15:22:14;2.90;;;2.70;;
4106;SDS011;21906;50.812;7.132;2023-07-31T15:24:40;2.90;;;2.70;;
4106;SDS011;21906;50.812;7.132;2023-07-31T15:27:06;2.90;;;2.53;;
4106;SDS011;21906;50.812;7.132;2023-07-31T15:29:33;2.70;;;2.50;;